Time;durP1;ratioP1;P1;durP2;ratioP2;P2;SDS_P1;SDS_P2;PMS_P1;PMS_P2;Temp;Humidity;BMP_temperature;BMP_pressure;BME280_temperature;BME280_humidity;BME280_pressure;Samples;Min_cycle;Max_cycle;Signal;HPM_P1;HPM_P2
2024/01/27 00:00:37;;;;;;;4.30;2.33;;;;;;;;;;5003013;28;20577;-62
2024/01/27 00:03:04;;;;;;;4.80;2.40;;;;;;;;;;5009636;28;20235;-62
2024/01/27 00:05:32;;;;;;;4.13;2.20;;;;;;;;;;5008097;28;20261;-63
2024/01/27 00:07:59;;;;;;;4.10;2.20;;;;;;;;;;5007647;28;20246;-63
2024/01/27 00:10:26;;;;;;;2.93;2.40;;;;;;;;;;4998310;28;20237;-62
2024/01/27 00:12:54;;;;;;;6.63;2.60;;;;;;;;;;5004255;28;20774;-64
2024/01/27 00:15:21;;;;;;;3.40;2.30;;;;;;;;;;5010574;28;20195;-64
2024/01/27 00:17:48;;;;;;;4.03;2.60;;;;;;;;;;5007469;28;20220;-64
2024/01/27 00:20:16;;;;;;;6.60;3.30;;;;;;;;;;5008053;28;20200;-64
2024/01/27 00:22:43;;;;;;;6.97;3.40;;;;;;;;;;5007412;28;20216;-63
2024/01/27 00:25:11;;;;;;;6.13;3.83;;;;;;;;;;5009061;28;20277;-64
2024/01/27 00:27:38;;;;;;;9.93;4.20;;;;;;;;;;5005925;28;20274;-64
2024/01/27 00:30:06;;;;;;;10.13;5.20;;;;;;;;;;5014233;28;20246;-64
2024/01/27 00:32:33;;;;;;;6.30;4.27;;;;;;;;;;5007140;28;20310;-64
2024/01/27 00:35:01;;;;;;;9.60;4.80;;;;;;;;;;5002586;28;20278;-63
2024/01/27 00:37:29;;;;;;;9.13;5.97;;;;;;;;;;5003954;28;20302;-64
2024/01/27 00:39:56;;;;;;;9.23;6.00;;;;;;;;;;5003026;28;20575;-63
2024/01/27 00:42:24;;;;;;;7.07;5.43;;;;;;;;;;5002954;28;20213;-63
2024/01/27 00:44:52;;;;;;;9.50;5.80;;;;;;;;;;5003991;28;20700;-63
2024/01/27 00:47:19;;;;;;;8.07;5.43;;;;;;;;;;5003876;28;20211;-63
2024/01/27 00:49:47;;;;;;;9.87;3.83;;;;;;;;;;5006250;28;20710;-64
2024/01/27 00:52:14;;;;;;;6.07;3.70;;;;;;;;;;5005863;28;20296;-63
2024/01/27 00:54:42;;;;;;;4.83;3.27;;;;;;;;;;5009431;28;20226;-64
2024/01/27 00:57:09;;;;;;;4.97;2.40;;;;;;;;;;5001587;28;20255;-64
2024/01/27 00:59:36;;;;;;;6.60;2.43;;;;;;;;;;5006659;28;20195;-63
2024/01/27 01:02:04;;;;;;;6.07;2.40;;;;;;;;;;5010905;28;20245;-64
2024/01/27 01:04:31;;;;;;;3.73;2.00;;;;;;;;;;5002295;28;20234;-64
2024/01/27 01:06:59;;;;;;;7.00;2.37;;;;;;;;;;5009930;28;20624;-63
2024/01/27 01:09:27;;;;;;;2.07;1.87;;;;;;;;;;5003884;28;20200;-64
2024/01/27 01:11:54;;;;;;;4.27;2.30;;;;;;;;;;5000348;28;20206;-62
2024/01/27 01:14:22;;;;;;;4.87;2.57;;;;;;;;;;5004244;28;20234;-64
2024/01/27 01:16:49;;;;;;;4.20;2.50;;;;;;;;;;5006182;28;20624;-63
2024/01/27 01:19:16;;;;;;;4.87;2.70;;;;;;;;;;5003254;28;20656;-63
2024/01/27 01:21:44;;;;;;;5.90;2.33;;;;;;;;;;5004057;28;20204;-63
2024/01/27 01:24:11;;;;;;;5.97;2.87;;;;;;;;;;5003652;28;20237;-63
2024/01/27 01:26:39;;;;;;;7.03;4.57;;;;;;;;;;5005732;28;20203;-62
2024/01/27 01:29:06;;;;;;;10.30;5.80;;;;;;;;;;5005237;28;20723;-64
2024/01/27 01:31:33;;;;;;;11.77;6.20;;;;;;;;;;5004027;28;20214;-64
2024/01/27 01:34:00;;;;;;;12.43;5.93;;;;;;;;;;5006071;28;20258;-64
2024/01/27 01:36:28;;;;;;;11.03;6.70;;;;;;;;;;5004359;28;20208;-64
2024/01/27 01:38:55;;;;;;;12.23;7.43;;;;;;;;;;5008530;28;20208;-63
2024/01/27 01:41:23;;;;;;;12.10;8.20;;;;;;;;;;4981799;28;20204;-64
2024/01/27 01:43:50;;;;;;;12.53;7.03;;;;;;;;;;5007289;28;20231;-62
2024/01/27 01:46:18;;;;;;;10.20;6.43;;;;;;;;;;5007364;28;20199;-63
2024/01/27 01:48:45;;;;;;;7.07;4.20;;;;;;;;;;5011695;28;20203;-64
2024/01/27 01:51:13;;;;;;;10.40;4.50;;;;;;;;;;5021529;28;20210;-63
2024/01/27 01:53:40;;;;;;;11.40;4.83;;;;;;;;;;5018356;28;20222;-63
2024/01/27 01:56:09;;;;;;;8.67;4.20;;;;;;;;;;5011259;28;20268;-63
2024/01/27 01:58:36;;;;;;;9.87;3.57;;;;;;;;;;5012002;28;20204;-65
2024/01/27 02:01:03;;;;;;;9.13;3.80;;;;;;;;;;5004105;28;20204;-65
2024/01/27 02:03:31;;;;;;;4.50;3.17;;;;;;;;;;5009960;28;20228;-63
2024/01/27 02:05:58;;;;;;;6.43;3.10;;;;;;;;;;5006374;28;20242;-64
2024/01/27 02:08:25;;;;;;;5.40;3.00;;;;;;;;;;5011725;28;20195;-63
2024/01/27 02:10:53;;;;;;;5.03;2.93;;;;;;;;;;5013123;28;20211;-64
2024/01/27 02:13:21;;;;;;;7.77;3.10;;;;;;;;;;5009351;28;20293;-65
2024/01/27 02:15:49;;;;;;;5.77;2.80;;;;;;;;;;5007566;28;20203;-63
2024/01/27 02:18:17;;;;;;;8.20;3.80;;;;;;;;;;5005577;28;20210;-63
2024/01/27 02:20:45;;;;;;;8.53;4.03;;;;;;;;;;5010672;28;20613;-63
2024/01/27 02:23:12;;;;;;;11.57;4.20;;;;;;;;;;5009662;28;20331;-64
2024/01/27 02:25:39;;;;;;;8.53;3.23;;;;;;;;;;5005825;28;20216;-65
2024/01/27 02:28:07;;;;;;;6.77;3.30;;;;;;;;;;5009417;28;20266;-64
2024/01/27 02:30:35;;;;;;;8.00;3.67;;;;;;;;;;4997407;28;20208;-64
2024/01/27 02:33:02;;;;;;;7.23;3.17;;;;;;;;;;5009500;28;20228;-63
2024/01/27 02:35:30;;;;;;;7.13;3.20;;;;;;;;;;5007571;28;20981;-64
2024/01/27 02:37:57;;;;;;;3.40;2.80;;;;;;;;;;5005839;28;20636;-63
2024/01/27 02:40:24;;;;;;;4.67;2.50;;;;;;;;;;4996376;28;20265;-65
2024/01/27 02:42:52;;;;;;;3.43;2.77;;;;;;;;;;5022583;28;20273;-64
2024/01/27 02:45:19;;;;;;;4.90;3.00;;;;;;;;;;5014320;28;20676;-64
2024/01/27 02:47:46;;;;;;;5.40;3.10;;;;;;;;;;5019427;28;20200;-64
2024/01/27 02:50:14;;;;;;;3.37;2.80;;;;;;;;;;5025317;28;20549;-63
2024/01/27 02:52:41;;;;;;;4.30;2.83;;;;;;;;;;5008152;28;20231;-64
2024/01/27 02:55:09;;;;;;;3.13;2.70;;;;;;;;;;4997867;28;20206;-64
2024/01/27 02:57:36;;;;;;;4.33;2.63;;;;;;;;;;5014891;28;20675;-65
2024/01/27 03:00:05;;;;;;;6.90;3.20;;;;;;;;;;5007528;28;20452;-63
2024/01/27 03:02:32;;;;;;;4.47;3.23;;;;;;;;;;5006374;28;20210;-64
2024/01/27 03:05:00;;;;;;;6.17;3.37;;;;;;;;;;5000601;28;20241;-65
2024/01/27 03:07:28;;;;;;;6.77;3.40;;;;;;;;;;5011245;28;20631;-65
2024/01/27 03:09:55;;;;;;;4.47;3.33;;;;;;;;;;5000160;28;20203;-64
2024/01/27 03:12:23;;;;;;;5.43;3.43;;;;;;;;;;5007867;28;20207;-64
2024/01/27 03:14:51;;;;;;;6.63;3.00;;;;;;;;;;5012329;28;20664;-64
2024/01/27 03:17:19;;;;;;;4.30;3.10;;;;;;;;;;5002031;28;20218;-64
2024/01/27 03:19:46;;;;;;;5.50;3.30;;;;;;;;;;5008761;28;20626;-65
2024/01/27 03:22:15;;;;;;;5.40;3.23;;;;;;;;;;5009069;28;20556;-65
2024/01/27 03:24:43;;;;;;;4.40;3.30;;;;;;;;;;5009372;28;20261;-64
2024/01/27 03:27:10;;;;;;;9.20;3.57;;;;;;;;;;5003767;28;20208;-63
2024/01/27 03:29:37;;;;;;;6.80;3.90;;;;;;;;;;4992879;28;20218;-64
2024/01/27 03:32:05;;;;;;;7.07;3.93;;;;;;;;;;5003085;28;20267;-65
2024/01/27 03:34:32;;;;;;;4.37;3.47;;;;;;;;;;5006266;28;20243;-64
2024/01/27 03:37:00;;;;;;;8.43;3.37;;;;;;;;;;5007532;28;20282;-64
2024/01/27 03:39:27;;;;;;;8.60;3.53;;;;;;;;;;5006326;28;20199;-65
2024/01/27 03:41:55;;;;;;;6.10;3.70;;;;;;;;;;5008511;28;20669;-64
2024/01/27 03:44:22;;;;;;;4.60;3.30;;;;;;;;;;5009439;28;20662;-65
2024/01/27 03:46:51;;;;;;;6.57;3.97;;;;;;;;;;4989033;28;20211;-65
2024/01/27 03:49:18;;;;;;;7.63;3.83;;;;;;;;;;5001878;28;20218;-64
2024/01/27 03:51:45;;;;;;;6.67;3.90;;;;;;;;;;5003179;28;20211;-64
2024/01/27 03:54:13;;;;;;;8.47;4.13;;;;;;;;;;5009386;28;20235;-65
2024/01/27 03:56:41;;;;;;;6.47;3.60;;;;;;;;;;5009887;28;20226;-64
2024/01/27 03:59:10;;;;;;;5.87;3.33;;;;;;;;;;5001919;28;20206;-63
2024/01/27 04:01:38;;;;;;;3.27;2.87;;;;;;;;;;5000887;28;20214;-65
2024/01/27 04:04:05;;;;;;;4.33;3.10;;;;;;;;;;5004146;28;20235;-65
2024/01/27 04:06:41;;;;;;;4.20;2.97;;;;;;;;;;5005872;28;20220;-64
2024/01/27 04:09:09;;;;;;;3.20;2.87;;;;;;;;;;5011817;28;20207;-64
2024/01/27 04:11:37;;;;;;;4.33;2.80;;;;;;;;;;5000511;28;21166;-65
2024/01/27 04:14:05;;;;;;;4.93;3.20;;;;;;;;;;5018368;28;20266;-65
2024/01/27 04:16:32;;;;;;;4.07;3.60;;;;;;;;;;5008848;28;20265;-65
2024/01/27 04:19:00;;;;;;;5.13;3.03;;;;;;;;;;5009465;28;20492;-64
2024/01/27 04:21:27;;;;;;;4.33;2.70;;;;;;;;;;5005589;28;20218;-66
2024/01/27 04:23:55;;;;;;;7.50;3.13;;;;;;;;;;4999559;28;20239;-63
2024/01/27 04:26:22;;;;;;;3.93;3.20;;;;;;;;;;4998444;28;20200;-66
2024/01/27 04:28:50;;;;;;;6.97;3.40;;;;;;;;;;5018828;28;20777;-65
2024/01/27 04:31:17;;;;;;;5.23;3.53;;;;;;;;;;5001901;28;20226;-64
2024/01/27 04:33:44;;;;;;;5.67;3.17;;;;;;;;;;5004799;28;20239;-65
2024/01/27 04:36:12;;;;;;;7.40;3.87;;;;;;;;;;5004000;28;20582;-64
2024/01/27 04:38:39;;;;;;;5.00;3.50;;;;;;;;;;4991008;28;20221;-65
2024/01/27 04:41:06;;;;;;;5.50;4.87;;;;;;;;;;4980743;28;21370;-64
2024/01/27 04:43:34;;;;;;;5.93;4.30;;;;;;;;;;5003627;28;20235;-65
2024/01/27 04:46:01;;;;;;;5.37;4.70;;;;;;;;;;4998048;28;20207;-66
2024/01/27 04:48:28;;;;;;;8.50;4.83;;;;;;;;;;5018665;28;20204;-65
2024/01/27 04:50:56;;;;;;;10.23;5.40;;;;;;;;;;4997863;28;20203;-67
2024/01/27 04:53:24;;;;;;;8.13;4.90;;;;;;;;;;5002638;28;20227;-66
2024/01/27 04:55:51;;;;;;;10.10;4.80;;;;;;;;;;5001233;28;20215;-64
2024/01/27 04:58:18;;;;;;;7.83;4.73;;;;;;;;;;4995013;28;20199;-64
2024/01/27 05:00:46;;;;;;;5.30;4.40;;;;;;;;;;4997497;28;20207;-64
2024/01/27 05:03:13;;;;;;;8.53;4.40;;;;;;;;;;4997312;28;20215;-64
2024/01/27 05:05:42;;;;;;;7.30;4.30;;;;;;;;;;5003002;28;20209;-65
2024/01/27 05:08:10;;;;;;;5.67;4.67;;;;;;;;;;5005665;28;20210;-68
2024/01/27 05:10:37;;;;;;;7.17;4.60;;;;;;;;;;4976369;28;20204;-66
2024/01/27 05:13:05;;;;;;;8.50;4.40;;;;;;;;;;5001257;28;20294;-66
2024/01/27 05:15:32;;;;;;;5.37;4.67;;;;;;;;;;4986425;28;20267;-65
2024/01/27 05:18:00;;;;;;;9.30;6.10;;;;;;;;;;5002484;28;20671;-65
2024/01/27 05:20:27;;;;;;;8.03;6.40;;;;;;;;;;5008576;28;20254;-64
2024/01/27 05:22:55;;;;;;;7.23;4.90;;;;;;;;;;5006533;28;20214;-65
2024/01/27 05:25:22;;;;;;;7.63;5.27;;;;;;;;;;5013051;28;20253;-64
2024/01/27 05:27:49;;;;;;;7.47;6.73;;;;;;;;;;5005447;28;20216;-64
2024/01/27 05:30:17;;;;;;;7.53;5.10;;;;;;;;;;5005840;28;20656;-66
2024/01/27 05:32:44;;;;;;;5.90;4.10;;;;;;;;;;5012294;28;20219;-63
2024/01/27 05:35:12;;;;;;;9.23;5.33;;;;;;;;;;5011604;28;20228;-65
2024/01/27 05:37:39;;;;;;;5.10;4.40;;;;;;;;;;4993179;28;20207;-63
2024/01/27 05:40:10;;;;;;;7.30;4.13;;;;;;;;;;5022788;28;20672;-64
2024/01/27 05:42:40;;;;;;;9.50;4.37;;;;;;;;;;5010148;28;20498;-63
2024/01/27 05:45:07;;;;;;;5.03;4.37;;;;;;;;;;5010260;28;20214;-63
2024/01/27 05:47:35;;;;;;;14.50;7.97;;;;;;;;;;5013556;28;20272;-64
2024/01/27 05:50:03;;;;;;;16.73;8.87;;;;;;;;;;5012386;28;20203;-64
2024/01/27 05:52:31;;;;;;;11.60;7.70;;;;;;;;;;5012671;28;20211;-64
2024/01/27 05:54:58;;;;;;;11.43;6.60;;;;;;;;;;5009211;28;20254;-64
2024/01/27 05:57:25;;;;;;;11.20;6.03;;;;;;;;;;5003429;28;20697;-64
2024/01/27 05:59:54;;;;;;;9.93;6.43;;;;;;;;;;5003280;28;20211;-64
2024/01/27 06:02:21;;;;;;;13.33;6.73;;;;;;;;;;5001629;28;20205;-65
2024/01/27 06:04:48;;;;;;;9.07;6.27;;;;;;;;;;5005249;28;20293;-64
2024/01/27 06:07:16;;;;;;;8.93;5.53;;;;;;;;;;5006585;28;20208;-63
2024/01/27 06:09:43;;;;;;;12.10;5.77;;;;;;;;;;5002195;28;20294;-64
2024/01/27 06:12:10;;;;;;;11.10;5.50;;;;;;;;;;5003986;28;20684;-63
2024/01/27 06:14:38;;;;;;;9.03;4.87;;;;;;;;;;5011350;28;20733;-63
2024/01/27 06:17:05;;;;;;;9.73;5.83;;;;;;;;;;5007271;28;20292;-63
2024/01/27 06:19:33;;;;;;;9.10;5.83;;;;;;;;;;5005779;28;20547;-64
2024/01/27 06:22:00;;;;;;;11.27;6.47;;;;;;;;;;4992205;28;20231;-64
2024/01/27 06:24:32;;;;;;;7.90;5.60;;;;;;;;;;5005791;28;20728;-64
2024/01/27 06:26:59;;;;;;;9.03;5.90;;;;;;;;;;5008233;28;20300;-64
2024/01/27 06:29:28;;;;;;;8.70;6.93;;;;;;;;;;5013233;28;20307;-64
2024/01/27 06:31:56;;;;;;;53.60;29.47;;;;;;;;;;5016577;28;20214;-65
2024/01/27 06:34:23;;;;;;;44.30;25.00;;;;;;;;;;5024241;28;20230;-64
2024/01/27 06:36:51;;;;;;;19.43;12.50;;;;;;;;;;5008342;28;20207;-64
2024/01/27 06:39:18;;;;;;;18.93;9.50;;;;;;;;;;5007749;28;20641;-62
2024/01/27 06:41:45;;;;;;;18.63;9.03;;;;;;;;;;5008826;28;20682;-64
2024/01/27 06:44:13;;;;;;;15.50;8.87;;;;;;;;;;5009533;28;20235;-63
2024/01/27 06:46:40;;;;;;;16.23;8.73;;;;;;;;;;5002644;28;20301;-63
2024/01/27 06:49:07;;;;;;;14.23;8.07;;;;;;;;;;5001019;28;20215;-63
2024/01/27 06:51:35;;;;;;;16.43;9.13;;;;;;;;;;5022518;28;20223;-64
2024/01/27 06:54:02;;;;;;;13.13;8.87;;;;;;;;;;5005825;28;20285;-63
2024/01/27 06:56:29;;;;;;;15.13;9.17;;;;;;;;;;5004200;28;20212;-63
2024/01/27 06:58:57;;;;;;;21.73;11.40;;;;;;;;;;5007989;28;20214;-63
2024/01/27 07:01:24;;;;;;;21.53;11.20;;;;;;;;;;5007641;28;20203;-63
2024/01/27 07:03:52;;;;;;;17.10;11.40;;;;;;;;;;5008991;28;20242;-65
2024/01/27 07:06:19;;;;;;;18.57;11.13;;;;;;;;;;5004784;28;20212;-63
2024/01/27 07:08:47;;;;;;;15.57;9.90;;;;;;;;;;4999528;28;20211;-62
2024/01/27 07:11:14;;;;;;;14.83;9.50;;;;;;;;;;5006280;28;20204;-63
2024/01/27 07:13:42;;;;;;;13.17;9.37;;;;;;;;;;5011487;28;20230;-63
2024/01/27 07:16:09;;;;;;;17.50;10.23;;;;;;;;;;5011704;28;20640;-62
2024/01/27 07:18:37;;;;;;;14.27;10.03;;;;;;;;;;5008049;28;20243;-62
2024/01/27 07:21:05;;;;;;;16.93;10.50;;;;;;;;;;4992602;28;20324;-65
2024/01/27 07:23:35;;;;;;;19.10;10.87;;;;;;;;;;5005231;28;20254;-63
2024/01/27 07:26:03;;;;;;;33.27;19.00;;;;;;;;;;5005218;28;20286;-62
2024/01/27 07:28:31;;;;;;;27.73;17.73;;;;;;;;;;5005361;28;20204;-63
2024/01/27 07:30:58;;;;;;;21.10;13.90;;;;;;;;;;4989283;28;20648;-64
2024/01/27 07:33:26;;;;;;;20.87;13.80;;;;;;;;;;5008441;28;20274;-62
2024/01/27 07:35:53;;;;;;;15.67;10.57;;;;;;;;;;5006952;28;20241;-63
2024/01/27 07:38:21;;;;;;;23.37;14.67;;;;;;;;;;5013228;28;20215;-65
2024/01/27 07:40:48;;;;;;;19.93;13.87;;;;;;;;;;5010939;28;20199;-63
2024/01/27 07:43:15;;;;;;;16.43;13.13;;;;;;;;;;5009694;28;20225;-64
2024/01/27 07:45:44;;;;;;;17.27;12.70;;;;;;;;;;5013682;28;20603;-63
2024/01/27 07:48:12;;;;;;;18.43;11.67;;;;;;;;;;5016844;28;20242;-62
2024/01/27 07:50:39;;;;;;;16.27;10.90;;;;;;;;;;5015617;28;20211;-63
2024/01/27 07:53:07;;;;;;;17.57;11.77;;;;;;;;;;4984818;28;20638;-63
2024/01/27 07:55:34;;;;;;;17.83;10.90;;;;;;;;;;5006673;28;20595;-63
2024/01/27 07:58:02;;;;;;;19.30;11.30;;;;;;;;;;5015533;28;20302;-64
2024/01/27 08:00:31;;;;;;;15.43;10.80;;;;;;;;;;5024720;28;20207;-63
2024/01/27 08:02:58;;;;;;;14.10;10.27;;;;;;;;;;5010195;28;20226;-63
2024/01/27 08:05:26;;;;;;;14.27;9.70;;;;;;;;;;5014974;28;20239;-63
2024/01/27 08:07:53;;;;;;;16.87;10.77;;;;;;;;;;5011397;28;20206;-64
2024/01/27 08:10:20;;;;;;;14.87;10.83;;;;;;;;;;5007828;28;20257;-65
2024/01/27 08:12:48;;;;;;;15.83;11.17;;;;;;;;;;5008603;28;20211;-63
2024/01/27 08:15:15;;;;;;;19.43;12.90;;;;;;;;;;5002853;28;20224;-63
2024/01/27 08:17:43;;;;;;;20.07;13.20;;;;;;;;;;4994253;28;20215;-64
2024/01/27 08:20:10;;;;;;;19.67;13.27;;;;;;;;;;5000393;28;20212;-63
2024/01/27 08:22:38;;;;;;;22.97;14.43;;;;;;;;;;5000824;28;20691;-63
2024/01/27 08:25:06;;;;;;;22.60;13.97;;;;;;;;;;4988537;28;20235;-63
2024/01/27 08:27:33;;;;;;;9.43;7.60;;;;;;;;;;4998782;28;20664;-65
2024/01/27 08:30:01;;;;;;;12.27;9.00;;;;;;;;;;5000447;28;20207;-62
2024/01/27 08:32:28;;;;;;;11.60;8.13;;;;;;;;;;4997291;28;20293;-62
2024/01/27 08:34:56;;;;;;;8.87;7.83;;;;;;;;;;4990316;28;20684;-62
2024/01/27 08:37:24;;;;;;;10.17;8.03;;;;;;;;;;4982907;28;20211;-65
2024/01/27 08:39:51;;;;;;;13.93;8.77;;;;;;;;;;5006607;28;20226;-62
2024/01/27 08:42:18;;;;;;;12.83;9.07;;;;;;;;;;4985337;28;20211;-62
2024/01/27 08:44:46;;;;;;;13.00;9.30;;;;;;;;;;5008557;28;20502;-62
2024/01/27 08:47:13;;;;;;;23.37;15.03;;;;;;;;;;4987283;28;20720;-65
2024/01/27 08:49:41;;;;;;;33.33;18.77;;;;;;;;;;5024101;28;20202;-65
2024/01/27 08:52:08;;;;;;;42.23;21.80;;;;;;;;;;5017181;28;20213;-63
2024/01/27 08:54:36;;;;;;;40.03;21.87;;;;;;;;;;5017972;28;20320;-63
2024/01/27 08:57:04;;;;;;;38.33;22.10;;;;;;;;;;5013479;28;20203;-63
2024/01/27 08:59:31;;;;;;;40.80;21.13;;;;;;;;;;5015774;28;20213;-63
2024/01/27 09:01:58;;;;;;;33.40;18.43;;;;;;;;;;5014730;28;20641;-65
2024/01/27 09:04:26;;;;;;;30.57;16.67;;;;;;;;;;5014737;28;20234;-64
2024/01/27 09:06:53;;;;;;;30.87;17.40;;;;;;;;;;5009690;28;20234;-63
2024/01/27 09:09:21;;;;;;;21.40;12.90;;;;;;;;;;5005843;28;20677;-63
2024/01/27 09:11:50;;;;;;;16.23;10.77;;;;;;;;;;5006381;28;20230;-61
2024/01/27 09:14:17;;;;;;;15.83;9.50;;;;;;;;;;5000261;28;20231;-63
2024/01/27 09:16:45;;;;;;;11.83;8.73;;;;;;;;;;5002407;28;20290;-64
2024/01/27 09:19:13;;;;;;;14.93;8.40;;;;;;;;;;5004319;28;20211;-62
2024/01/27 09:21:40;;;;;;;13.47;8.60;;;;;;;;;;5010270;28;20211;-63
2024/01/27 09:24:08;;;;;;;10.07;8.73;;;;;;;;;;5003429;28;20262;-64
2024/01/27 09:26:37;;;;;;;11.37;8.03;;;;;;;;;;5011300;28;20239;-65
2024/01/27 09:29:04;;;;;;;11.50;8.70;;;;;;;;;;5016956;28;20575;-65
2024/01/27 09:31:31;;;;;;;14.73;8.43;;;;;;;;;;5003843;28;21098;-63
2024/01/27 09:33:59;;;;;;;13.80;8.70;;;;;;;;;;5005003;28;20778;-63
2024/01/27 09:36:26;;;;;;;14.03;7.90;;;;;;;;;;5000975;28;20223;-63
2024/01/27 09:38:54;;;;;;;13.23;8.10;;;;;;;;;;4995245;28;20212;-64
2024/01/27 09:41:22;;;;;;;12.07;6.93;;;;;;;;;;5001611;28;20254;-64
2024/01/27 09:43:49;;;;;;;9.30;5.80;;;;;;;;;;4995736;28;20246;-63
2024/01/27 09:46:18;;;;;;;9.57;6.33;;;;;;;;;;4997789;28;20216;-65
2024/01/27 09:48:45;;;;;;;12.67;6.57;;;;;;;;;;4999425;28;21358;-64
2024/01/27 09:51:13;;;;;;;8.93;5.67;;;;;;;;;;5002792;28;20203;-65
2024/01/27 09:53:40;;;;;;;10.43;5.57;;;;;;;;;;4991358;28;20289;-63
2024/01/27 09:56:08;;;;;;;9.67;5.87;;;;;;;;;;4998184;28;20231;-62
2024/01/27 09:58:36;;;;;;;11.00;5.20;;;;;;;;;;4977705;28;20314;-63
2024/01/27 10:01:03;;;;;;;9.33;5.17;;;;;;;;;;5000743;28;20203;-63
2024/01/27 10:03:31;;;;;;;8.30;4.03;;;;;;;;;;4990624;28;20329;-64
2024/01/27 10:05:59;;;;;;;8.07;4.03;;;;;;;;;;4993751;28;20666;-63
2024/01/27 10:08:26;;;;;;;5.63;3.23;;;;;;;;;;4986860;28;20213;-63
2024/01/27 10:10:58;;;;;;;6.60;3.17;;;;;;;;;;4976177;28;21789;-63
2024/01/27 10:13:26;;;;;;;6.17;2.80;;;;;;;;;;4989031;28;20639;-63
2024/01/27 10:16:03;;;;;;;5.83;2.90;;;;;;;;;;4975474;28;20235;-63
2024/01/27 10:18:31;;;;;;;3.70;2.63;;;;;;;;;;4988738;28;20319;-64
2024/01/27 10:20:59;;;;;;;5.80;2.40;;;;;;;;;;4988736;28;20717;-63
2024/01/27 10:23:27;;;;;;;3.80;2.27;;;;;;;;;;4995228;28;20614;-65
2024/01/27 10:25:54;;;;;;;6.10;2.47;;;;;;;;;;4979489;28;21090;-64
2024/01/27 10:28:24;;;;;;;6.23;2.20;;;;;;;;;;4991712;28;20332;-64
2024/01/27 10:30:52;;;;;;;5.70;2.47;;;;;;;;;;4998259;28;20212;-63
2024/01/27 10:33:19;;;;;;;3.63;2.23;;;;;;;;;;4992703;28;20239;-63
2024/01/27 10:35:47;;;;;;;6.70;2.27;;;;;;;;;;4975589;28;20636;-65
2024/01/27 10:38:14;;;;;;;4.27;2.50;;;;;;;;;;4988451;28;20461;-65
2024/01/27 10:40:41;;;;;;;4.70;1.97;;;;;;;;;;4992257;28;20216;-65
2024/01/27 10:43:09;;;;;;;4.20;2.07;;;;;;;;;;4995535;28;20267;-64
2024/01/27 10:45:38;;;;;;;4.17;2.00;;;;;;;;;;4988449;28;20676;-65
2024/01/27 10:48:06;;;;;;;3.37;1.83;;;;;;;;;;4981872;28;20207;-66
2024/01/27 10:50:38;;;;;;;2.30;1.50;;;;;;;;;;4989836;28;20676;-64
2024/01/27 10:53:20;;;;;;;3.63;1.70;;;;;;;;;;4986538;28;20726;-65
2024/01/27 10:55:48;;;;;;;3.70;1.60;;;;;;;;;;4990253;28;20245;-66
2024/01/27 10:58:16;;;;;;;4.83;2.07;;;;;;;;;;4997580;28;20586;-65
2024/01/27 11:00:45;;;;;;;3.90;1.70;;;;;;;;;;4998527;28;20212;-64
2024/01/27 11:03:12;;;;;;;2.67;1.73;;;;;;;;;;4996962;28;20583;-64
2024/01/27 11:05:40;;;;;;;3.07;1.70;;;;;;;;;;4986869;28;20317;-64
2024/01/27 11:08:09;;;;;;;4.80;1.93;;;;;;;;;;4992001;28;20297;-63
2024/01/27 11:10:38;;;;;;;2.83;1.60;;;;;;;;;;4993512;28;21004;-64
2024/01/27 11:13:08;;;;;;;2.87;2.00;;;;;;;;;;4996763;28;20238;-66
2024/01/27 11:15:35;;;;;;;3.80;2.13;;;;;;;;;;4995307;28;20293;-65
2024/01/27 11:18:05;;;;;;;16.20;8.50;;;;;;;;;;4993281;28;21229;-65
2024/01/27 11:20:32;;;;;;;4.67;2.23;;;;;;;;;;4970444;28;20213;-66
2024/01/27 11:23:15;;;;;;;4.47;1.90;;;;;;;;;;4989949;28;20212;-63
2024/01/27 11:25:42;;;;;;;2.90;2.00;;;;;;;;;;4987892;28;23096;-64
2024/01/27 11:28:14;;;;;;;16.37;6.60;;;;;;;;;;4993674;28;20814;-66
2024/01/27 11:30:48;;;;;;;11.27;4.93;;;;;;;;;;4992137;28;20681;-65
2024/01/27 11:33:15;;;;;;;2.53;1.70;;;;;;;;;;4983090;28;20221;-66
2024/01/27 11:35:43;;;;;;;4.17;2.57;;;;;;;;;;4989182;28;20263;-64
2024/01/27 11:38:13;;;;;;;7.47;3.20;;;;;;;;;;4976358;28;20215;-64
2024/01/27 11:40:47;;;;;;;1.10;1.10;;;;;;;;;;4984807;28;20210;-65
2024/01/27 11:43:14;;;;;;;3.47;1.30;;;;;;;;;;4970717;28;20534;-65
2024/01/27 11:45:41;;;;;;;4.70;1.93;;;;;;;;;;4997688;28;20700;-65
2024/01/27 11:48:09;;;;;;;6.03;1.87;;;;;;;;;;4995425;28;20277;-65
2024/01/27 11:50:37;;;;;;;5.03;2.10;;;;;;;;;;5004964;28;20212;-64
2024/01/27 11:53:09;;;;;;;5.33;2.40;;;;;;;;;;4994319;28;20972;-63
2024/01/27 11:55:37;;;;;;;2.60;1.40;;;;;;;;;;4998618;28;20669;-65
2024/01/27 11:58:05;;;;;;;1.73;1.10;;;;;;;;;;4986044;28;20208;-65
2024/01/27 12:00:35;;;;;;;2.93;1.40;;;;;;;;;;4987119;28;20779;-62
2024/01/27 12:03:04;;;;;;;2.50;1.70;;;;;;;;;;4993938;28;20211;-63
2024/01/27 12:05:31;;;;;;;1.40;1.30;;;;;;;;;;5006491;28;20211;-65
2024/01/27 12:07:59;;;;;;;1.70;1.40;;;;;;;;;;4998327;28;20199;-63
2024/01/27 12:10:26;;;;;;;2.10;1.30;;;;;;;;;;5006930;28;20587;-64
2024/01/27 12:12:54;;;;;;;3.43;1.33;;;;;;;;;;4999003;28;20220;-64
2024/01/27 12:15:21;;;;;;;3.37;1.40;;;;;;;;;;4999345;28;20238;-66
2024/01/27 12:17:52;;;;;;;1.90;1.20;;;;;;;;;;4993827;28;20211;-66
2024/01/27 12:20:20;;;;;;;1.47;1.00;;;;;;;;;;5007153;28;20208;-66
2024/01/27 12:22:47;;;;;;;1.37;1.07;;;;;;;;;;5002920;28;20285;-65
2024/01/27 12:25:15;;;;;;;0.87;0.77;;;;;;;;;;4999815;28;20203;-63
2024/01/27 12:27:43;;;;;;;1.30;0.82;;;;;;;;;;4988842;28;20208;-65
2024/01/27 12:30:10;;;;;;;2.45;1.45;;;;;;;;;;4983015;28;20207;-64
2024/01/27 12:32:39;;;;;;;1.20;1.10;;;;;;;;;;4991607;28;21193;-62
2024/01/27 12:35:07;;;;;;;1.73;0.90;;;;;;;;;;4994913;28;20242;-64
2024/01/27 12:37:35;;;;;;;1.15;1.08;;;;;;;;;;5001137;28;20204;-63
2024/01/27 12:40:03;;;;;;;5.65;2.13;;;;;;;;;;5015256;28;20204;-65
2024/01/27 12:42:30;;;;;;;2.85;1.48;;;;;;;;;;4984280;28;20232;-64
2024/01/27 12:44:57;;;;;;;2.13;1.27;;;;;;;;;;4993640;28;20231;-64
2024/01/27 12:47:25;;;;;;;4.60;2.42;;;;;;;;;;4995187;28;20222;-64
2024/01/27 12:49:54;;;;;;;3.15;1.75;;;;;;;;;;4999067;28;21287;-63
2024/01/27 12:52:23;;;;;;;1.33;1.23;;;;;;;;;;4991431;28;20282;-65
2024/01/27 12:54:51;;;;;;;4.53;1.67;;;;;;;;;;5014196;28;20293;-64
2024/01/27 12:57:19;;;;;;;5.00;2.42;;;;;;;;;;5001823;28;20230;-64
2024/01/27 12:59:46;;;;;;;4.07;2.58;;;;;;;;;;4997846;28;20203;-64
2024/01/27 13:02:15;;;;;;;2.10;1.45;;;;;;;;;;4990054;28;20204;-65
2024/01/27 13:04:43;;;;;;;3.17;1.90;;;;;;;;;;5004090;28;20708;-65
2024/01/27 13:07:11;;;;;;;3.73;2.30;;;;;;;;;;4999144;28;20268;-65
2024/01/27 13:09:38;;;;;;;3.00;2.30;;;;;;;;;;5017953;28;20222;-64
2024/01/27 13:12:06;;;;;;;2.13;2.03;;;;;;;;;;4998496;28;20208;-64
2024/01/27 13:14:33;;;;;;;3.30;1.80;;;;;;;;;;4999109;28;20274;-64
2024/01/27 13:17:01;;;;;;;6.20;3.57;;;;;;;;;;4995086;28;20647;-64
2024/01/27 13:19:30;;;;;;;3.33;1.87;;;;;;;;;;4992338;28;20204;-65
2024/01/27 13:21:58;;;;;;;2.03;1.53;;;;;;;;;;4987771;28;20313;-64
2024/01/27 13:24:25;;;;;;;2.30;1.43;;;;;;;;;;4997116;28;20247;-64
2024/01/27 13:26:53;;;;;;;3.07;1.57;;;;;;;;;;5005877;28;20207;-66
2024/01/27 13:29:20;;;;;;;4.10;2.23;;;;;;;;;;5000442;28;20270;-65
2024/01/27 13:31:48;;;;;;;4.20;1.80;;;;;;;;;;4997950;28;20215;-63
2024/01/27 13:34:15;;;;;;;2.30;1.80;;;;;;;;;;4999787;28;20300;-64
2024/01/27 13:36:42;;;;;;;2.27;1.83;;;;;;;;;;5003963;28;20264;-66
2024/01/27 13:39:10;;;;;;;2.17;1.57;;;;;;;;;;4998858;28;20227;-65
2024/01/27 13:41:38;;;;;;;2.30;1.80;;;;;;;;;;4998131;28;20207;-64
2024/01/27 13:44:05;;;;;;;2.50;1.83;;;;;;;;;;4988385;28;20231;-65
2024/01/27 13:46:33;;;;;;;2.13;1.93;;;;;;;;;;5007497;28;20246;-64
2024/01/27 13:49:00;;;;;;;2.83;2.20;;;;;;;;;;5002501;28;20211;-65
2024/01/27 13:51:27;;;;;;;4.33;2.50;;;;;;;;;;5000427;28;21049;-65
2024/01/27 13:53:55;;;;;;;3.70;2.30;;;;;;;;;;4998439;28;20219;-66
2024/01/27 13:56:22;;;;;;;5.03;2.10;;;;;;;;;;5020159;28;20250;-65
2024/01/27 13:58:50;;;;;;;2.80;2.00;;;;;;;;;;4996526;28;20203;-65
2024/01/27 14:01:17;;;;;;;2.30;1.50;;;;;;;;;;5002445;28;20691;-64
2024/01/27 14:03:44;;;;;;;1.60;1.50;;;;;;;;;;5001199;28;20618;-65
2024/01/27 14:06:12;;;;;;;2.20;1.80;;;;;;;;;;5004441;28;20866;-64
2024/01/27 14:08:41;;;;;;;1.73;1.60;;;;;;;;;;5003510;28;20690;-66
2024/01/27 14:11:09;;;;;;;2.47;1.30;;;;;;;;;;4997569;28;20808;-64
2024/01/27 14:13:37;;;;;;;1.70;1.50;;;;;;;;;;4989949;28;20850;-64
2024/01/27 14:16:04;;;;;;;1.80;1.53;;;;;;;;;;5003779;28;20289;-63
2024/01/27 14:18:32;;;;;;;5.50;1.70;;;;;;;;;;4994759;28;20244;-64
2024/01/27 14:20:59;;;;;;;3.90;1.90;;;;;;;;;;4995124;28;20208;-64
2024/01/27 14:23:27;;;;;;;3.13;1.70;;;;;;;;;;4998224;28;20246;-64
2024/01/27 14:25:54;;;;;;;2.07;1.70;;;;;;;;;;5005273;28;20583;-63
2024/01/27 14:28:22;;;;;;;1.73;1.43;;;;;;;;;;5004451;28;20240;-64
2024/01/27 14:30:49;;;;;;;1.70;1.60;;;;;;;;;;4997905;28;20217;-64
2024/01/27 14:33:20;;;;;;;3.57;1.80;;;;;;;;;;5001245;28;20226;-63
2024/01/27 14:35:48;;;;;;;2.80;1.40;;;;;;;;;;4987374;28;20242;-64
2024/01/27 14:38:15;;;;;;;3.30;2.17;;;;;;;;;;5007735;28;20208;-64
2024/01/27 14:40:43;;;;;;;3.87;2.17;;;;;;;;;;4999030;28;20216;-64